Navarro, Texas
Current Conditions -  °F | °C
As of 2:53 AM on Wednesday 22 Oct 2014 (Local Time) from KCRS Reporting Station
Clear Clear  
Wind Chill: 65°   Ceiling: Unl
Heat Index: 65°   Visibility: 10mi
Dew Point: 61°   Wind: 3mph
Humidity: 87%   Direction: 140°SE
Pressure: 30.08"   Gusts: NA
Location:  32.0983°N, 96.5183°W
Report Text: KCRS 220753Z AUTO 14003KT 10SM CLR 18/16 A3008 RMK AO2 SLP180 T01830161
Loading
Personal Weather Stations






























Interactive Weather Map
Tropical Storm Tracking
New forecast layout! Learn more

10-Day Weather Forecast

Advertisements
Track Severe Weather on mobile